Flight Track Log - Related Links

Times and Time Zones

All times are in EST time to prevent confusion due to time zone crossing. See the SKW4764 flight status page for this flight to view local times or setup timezone preferences in your user account.

Time Position Orientation Groundspeed Altitude Reporting Facility
EST Latitude Longitude Course Direction KTS MPH feet Rate Location/Type
Thu 05:28:14 PM 40.8128 -111.9772 351° North 176 203 5,100  Level Salt Lake Center
Thu 05:29:20 PM 40.8753 -111.9900 351° North 238 274 7,500 2,066 Climbing Salt Lake Center
Thu 05:30:16 PM 40.9314 -111.9933 357° North 248 285 9,300 2,262 Climbing Salt Lake Center
Thu 05:30:21 PM 40.9483 -111.9878 14° North 279 321 9,800 2,361 Climbing Salt Lake Center
Thu 05:31:17 PM 41.0067 -111.9525 25° Northeast 289 333 11,700 2,085 Climbing Salt Lake Center
Thu 05:32:19 PM 41.0875 -111.9053 24° Northeast 306 352 13,900 2,419 Climbing Salt Lake Center
Thu 05:33:21 PM 41.1681 -111.8600 23° Northeast 308 354 16,700 1,951 Climbing Salt Lake Center
Thu 05:34:22 PM 41.2442 -111.8117 26° Northeast 304 350 17,900 1,220 Climbing Salt Lake Center
Thu 05:35:24 PM 41.3419 -111.7411 28° Northeast 331 381 19,200 1,210 Climbing Salt Lake Center
Thu 05:36:26 PM 41.4281 -111.6944 22° Northeast 334 384 20,400 1,161 Climbing Salt Lake Center
Thu 05:37:28 PM 41.5181 -111.6592 16° North 337 388 21,600 1,171 Climbing Salt Lake Center
Thu 05:38:29 PM 41.6100 -111.6217 17° North 345 397 22,800 976 Climbing Salt Lake Center
Thu 05:39:31 PM 41.7039 -111.5844 16° North 352 405 23,600 774 Climbing Salt Lake Center
Thu 05:40:33 PM 41.7969 -111.5472 17° North 351 404 24,400 871 Climbing Salt Lake Center
Thu 05:41:35 PM 41.8908 -111.5558 356° North 341 392 25,400 976 Climbing Salt Lake Center
Thu 05:42:36 PM 41.9942 -111.6036 341° North 330 380 26,400 780 Climbing Salt Lake Center
Thu 05:43:38 PM 42.0836 -111.6436 342° North 336 387 27,000 290 Climbing Salt Lake Center
Thu 05:44:40 PM 42.1747 -111.6867 341° North 344 396 27,000  Level Salt Lake Center
Thu 05:45:42 PM 42.2722 -111.7319 341° North 363 418 27,000  Level Salt Lake Center
Thu 05:46:44 PM 42.3744 -111.7786 341° North 381 438 27,000  Level Salt Lake Center
Thu 05:47:45 PM 42.4747 -111.8258 341° North 383 441 27,000  Level Salt Lake Center
Thu 05:48:47 PM 42.5950 -111.8808 341° North 380 437 27,000  Level Salt Lake Center
Thu 05:49:49 PM 42.6933 -111.9281 341° North 376 433 27,000  Level Salt Lake Center
Thu 05:50:51 PM 42.7900 -111.9719 342° North 381 438 27,000  Level Salt Lake Center
Thu 05:51:53 PM 42.8981 -112.0228 341° North 370 426 27,000  Level Salt Lake Center
Thu 05:52:55 PM 42.9906 -112.0672 341° North 367 422 27,000  Level Salt Lake Center
Thu 05:53:57 PM 43.1014 -112.1211 340° North 375 432 27,000  Level Salt Lake Center
Thu 05:54:58 PM 43.1950 -112.1658 341° North 375 432 27,000  Level Salt Lake Center
Thu 05:56:00 PM 43.2889 -112.2114 341° North 373 429 27,000  Level Salt Lake Center
Thu 05:57:02 PM 43.3997 -112.2647 341° North 375 432 27,000  Level Salt Lake Center
Thu 05:58:04 PM 43.4958 -112.3122 340° North 381 438 27,000  Level Salt Lake Center
Thu 05:59:06 PM 43.6067 -112.3656 341° North 380 437 27,000  Level Salt Lake Center
Thu 06:00:08 PM 43.7022 -112.4106 341° North 379 436 27,000  Level Salt Lake Center
Thu 06:01:10 PM 43.8136 -112.4667 340° North 379 436 27,000  Level Salt Lake Center
Thu 06:02:11 PM 43.9106 -112.5153 340° North 385 443 27,000  Level Salt Lake Center
Thu 06:03:13 PM 44.0089 -112.5628 341° North 388 447 27,000  Level Salt Lake Center
Thu 06:04:15 PM 44.1228 -112.6200 340° North 390 449 27,000  Level Salt Lake Center
Thu 06:05:17 PM 44.2208 -112.6692 340° North 389 448 27,000  Level Salt Lake Center
Thu 06:06:19 PM 44.3350 -112.7264 340° North 389 448 27,000  Level Salt Lake Center
Thu 06:07:21 PM 44.4308 -112.7753 340° North 385 443 27,000  Level Salt Lake Center
Thu 06:08:22 PM 44.5411 -112.8300 341° North 377 434 27,000  Level Salt Lake Center
Thu 06:09:24 PM 44.6344 -112.8772 340° North 373 429 27,000  Level Salt Lake Center
Thu 06:10:26 PM 44.7300 -112.9264 340° North 378 435 27,000  Level Salt Lake Center
Thu 06:11:28 PM 44.8411 -112.9828 340° North 378 435 27,000  Level Salt Lake Center
Thu 06:12:29 PM 44.9364 -113.0331 340° North 380 437 27,000  Level Salt Lake Center
Thu 06:13:31 PM 45.0508 -113.0911 340° North 389 448 27,000  Level Salt Lake Center
Thu 06:14:33 PM 45.1464 -113.1406 340° North 383 441 27,000  Level Salt Lake Center
Thu 06:15:35 PM 45.2561 -113.1964 340° North 376 433 27,000  Level Salt Lake Center
Thu 06:16:37 PM 45.3511 -113.2464 340° North 371 427 27,000  Level Salt Lake Center
Thu 06:17:39 PM 45.4456 -113.2956 340° North 358 412 27,000 -439 Level Salt Lake Center
Thu 06:18:40 PM 45.5403 -113.3453 340° North 356 410 26,100 -1,122 Descending Salt Lake Center
Thu 06:19:42 PM 45.6447 -113.4006 340° North 363 418 24,700 -1,355 Descending Salt Lake Center
Thu 06:20:44 PM 45.7406 -113.4514 340° North 362 417 23,300 -1,306 Descending Salt Lake Center
Thu 06:21:46 PM 45.8381 -113.5022 340° North 363 418 22,000 -1,258 Descending Salt Lake Center
Thu 06:22:48 PM 45.9322 -113.5528 340° North 358 412 20,700 -1,306 Descending Salt Lake Center
Thu 06:23:50 PM 46.0253 -113.6033 339° North 353 406 19,300 -1,463 Descending Salt Lake Center
Thu 06:24:51 PM 46.1114 -113.6475 340° North 345 397 17,700 -1,597 Descending Salt Lake Center
Thu 06:25:54 PM 46.2056 -113.7006 339° North 328 377 16,000 -1,306 Descending Salt Lake Center
Thu 06:26:55 PM 46.2875 -113.7439 340° North 315 362 15,000 -488 Descending Salt Lake Center
Thu 06:27:57 PM 46.3733 -113.7919 339° North 309 356 15,000 -145 Level Salt Lake Center
Thu 06:28:59 PM 46.4539 -113.8356 340° North 309 356 14,700 -919 Descending Salt Lake Center
Thu 06:30:01 PM 46.5308 -113.8853 336° Northwest 305 351 13,100 -1,317 Descending Salt Lake Center
Thu 06:31:02 PM 46.6092 -113.9497 331° Northwest 303 349 12,000 -537 Descending Salt Lake Center
Thu 06:32:04 PM 46.6819 -114.0103 330° Northwest 302 348 12,000 -48 Level Salt Lake Center
Thu 06:33:06 PM 46.7581 -114.0689 332° Northwest 289 333 11,900 -774 Descending Salt Lake Center
Thu 06:34:08 PM 46.8083 -114.1575 310° West 288 331 10,400 -919 Descending Salt Lake Center
Thu 06:35:10 PM 46.8550 -114.2411 309° West 258 297 10,000 -195 Descending Salt Lake Center
Thu 06:36:11 PM 46.9006 -114.3200 310° West 237 273 10,000  Level Salt Lake Center
Thu 06:37:13 PM 46.9431 -114.3925 311° West 235 270 10,000  Level Salt Lake Center
Thu 06:38:15 PM 46.9867 -114.4703 309° West 244 281 10,000 -484 Level Salt Lake Center
Thu 06:39:17 PM 47.0294 -114.5394 312° West 209 241 9,000 -683 Descending Salt Lake Center
Thu 06:40:18 PM 47.0708 -114.5981 316° Northwest 209 241 8,600 -195 Descending Salt Lake Center
Thu 06:41:20 PM 47.1253 -114.5386 37° Northeast 244 281 8,600  Level Salt Lake Center
Thu 06:42:22 PM 47.1225 -114.4456 92° East 243 280 8,600 -145 Level Salt Lake Center
Thu 06:43:24 PM 47.0808 -114.3786 132° Southeast 224 258 8,300 -927 Descending Salt Lake Center
Thu 06:44:25 PM 47.0350 -114.2967 129° Southeast 240 276 6,700 -1,366 Descending Salt Lake Center
Thu 06:45:27 PM 46.9972 -114.2319 131° Southeast 217 250 5,500 -1,065 Descending Salt Lake Center
Thu 06:46:29 PM 46.9653 -114.1769 130° Southeast 187 215 4,500 -919 Descending Salt Lake Center
Thu 06:47:31 PM 46.9356 -114.1256 130° Southeast 159 183 3,600 -634 Descending Salt Lake Center
Thu 06:48:32 PM 46.9147 -114.0897 130° Southeast 150 173 3,200 -393 Descending Salt Lake Center

Login

Don't have an account? Register now (free) for customized features, flight alerts, and more!